Cape Express — HO5337 — position and weather

sailwx.info

Track history (hours):
 
Tides and Currents Weather Stations Pressure Air Temp Water Temp Dewpoint Dewpoint Depression Visibility Wind Speed Wind Dir Waves Ship Positions

Cape Express

Last reported at 2015-Mar-27 10:13 UTC. Time now 2015-Mar-28 16:00 UTC.
Position N 25°49' W 079°02'.

Length 29 m; draft 2.2 m.

Type: Cargo ship. MMSI: 370269000.

Date/timePositionNaut miles runAvg speedWind from/ knotsBaromVisibWave heightAir tempDewpointWater temp
2015-Mar-27 10:13N 25°49' W 079°02'7 9.6
2015-Mar-27 09:29N 25°51' W 079°10'11 9.2
2015-Mar-27 08:16N 25°56' W 079°20'7 8.1
2015-Mar-27 07:25N 25°56' W 079°28'8 9.5
2015-Mar-27 06:32N 25°58' W 079°37'9 9.2
2015-Mar-27 05:33N 26°01' W 079°47'9 8.7
2015-Mar-27 04:33N 26°03' W 079°56'9 9.0
2015-Mar-27 03:33N 26°06' W 080°06'3 2.8
2015-Mar-27 02:33N 26°04' W 080°08'0 0.0
2015-Mar-27 01:33N 26°04' W 080°08'0 0.0
2015-Mar-27 00:33N 26°04' W 080°08'0 0.0
2015-Mar-26 23:33N 26°04' W 080°08'0 0.0
2015-Mar-26 22:33N 26°04' W 080°08'0 0.0
2015-Mar-26 21:33N 26°04' W 080°08'0 0.0
2015-Mar-26 20:33N 26°04' W 080°08'0 0.1
2015-Mar-26 19:33N 26°04' W 080°08'0 0.0
2015-Mar-26 18:33N 26°04' W 080°08'0 0.0
2015-Mar-26 17:33N 26°04' W 080°08'0 0.0
2015-Mar-26 16:33N 26°04' W 080°08'0 0.0
2015-Mar-26 15:33N 26°04' W 080°08'0 0.0
2015-Mar-26 14:33N 26°04' W 080°08'0 0.0
2015-Mar-26 13:33N 26°04' W 080°08'4 3.8
2015-Mar-26 12:33N 26°05' W 080°04'8 8.1
2015-Mar-26 11:33N 26°03' W 079°55'8 7.9
2015-Mar-26 10:33N 26°01' W 079°47'9 8.9
2015-Mar-26 09:32N 25°58' W 079°37'4110.4
2015-Mar-26 05:33N 25°47' W 078°53'1110.5
2015-Mar-26 04:31N 25°44' W 078°41'  
2015-Mar-22 03:33N 25°58' W 079°39'8 8.2
2015-Mar-22 02:33N 26°01' W 079°48'9 9.0
2015-Mar-22 01:33N 26°04' W 079°57'9 8.9
2015-Mar-22 00:33N 26°05' W 080°07'2 2.0
2015-Mar-21 23:33N 26°04' W 080°08'0 0.0
2015-Mar-21 22:33N 26°04' W 080°08'0 0.0
2015-Mar-21 21:33N 26°04' W 080°08'0 0.0
2015-Mar-21 20:33N 26°04' W 080°08'0 0.0
2015-Mar-21 19:33N 26°04' W 080°08'0 0.0
2015-Mar-21 18:33N 26°04' W 080°08'0 0.0
2015-Mar-21 17:32N 26°04' W 080°08'0 0.0
2015-Mar-21 16:33N 26°04' W 080°08'0 0.0
2015-Mar-21 15:33N 26°04' W 080°08'0 0.0
2015-Mar-21 14:33N 26°04' W 080°08'4 4.1
2015-Mar-21 13:33N 26°06' W 080°04'1110.8
2015-Mar-21 12:33N 26°03' W 079°52'1111.1
2015-Mar-21 11:33N 25°59' W 079°41'1010.5
2015-Mar-21 10:33N 25°56' W 079°30'1110.5
2015-Mar-21 09:33N 25°54' W 079°18'77 2.5
2015-Mar-20 03:32N 25°51' W 077°53'2610.8
2015-Mar-20 01:08N 25°48' W 078°22'610.4
2015-Mar-20 00:33N 25°47' W 078°29'64 4.0
2015-Mar-19 08:28N 25°53' W 079°39'5 5.5
2015-Mar-19 07:33N 25°56' W 079°44'6 5.8
2015-Mar-19 06:33N 25°58' W 079°50'6 6.4
2015-Mar-19 05:33N 26°01' W 079°56'8 7.9
2015-Mar-19 04:33N 26°05' W 080°04'4 3.6
2015-Mar-19 03:33N 26°04' W 080°08'0 0.0
2015-Mar-19 02:33N 26°04' W 080°08'0 0.0
2015-Mar-19 01:33N 26°04' W 080°08'0 0.0
2015-Mar-19 00:33N 26°04' W 080°08'0 0.0
2015-Mar-18 23:33N 26°04' W 080°08'0 0.0
2015-Mar-18 22:33N 26°04' W 080°08'0 0.0
2015-Mar-18 21:33N 26°04' W 080°08'0 0.0
2015-Mar-18 20:33N 26°04' W 080°08'0 0.1
2015-Mar-18 19:33N 26°04' W 080°08'0 0.0
2015-Mar-18 18:33N 26°04' W 080°08'0 0.0
2015-Mar-18 17:33N 26°04' W 080°08'0 0.0
2015-Mar-18 16:33N 26°04' W 080°08'0 0.0
2015-Mar-18 15:33N 26°04' W 080°08'0 0.0
2015-Mar-18 14:32N 26°04' W 080°08'0 0.0
2015-Mar-18 13:33N 26°04' W 080°08'0 0.0
2015-Mar-18 12:33N 26°04' W 080°08'0 0.5
2015-Mar-18 11:33N 26°04' W 080°07'1 1.4
2015-Mar-18 10:33N 26°05' W 080°07'0 0.4
2015-Mar-18 09:33N 26°06' W 080°07'2 2.0
2015-Mar-18 08:33N 26°04' W 080°08'0 0.0
2015-Mar-18 07:33N 26°04' W 080°08'0 0.0
2015-Mar-18 06:33N 26°04' W 080°08'0 0.0
2015-Mar-18 05:33N 26°04' W 080°08'0 0.0
2015-Mar-18 04:33N 26°04' W 080°08'0 0.0
2015-Mar-18 03:33N 26°04' W 080°08'0 0.0
2015-Mar-18 02:33N 26°04' W 080°08'0 0.0
2015-Mar-18 01:33N 26°04' W 080°08'0 0.0
2015-Mar-18 00:33N 26°04' W 080°08'0 0.0
2015-Mar-17 23:33N 26°04' W 080°08'0 0.0
2015-Mar-17 22:33N 26°04' W 080°08'1 0.5
2015-Mar-17 21:33N 26°04' W 080°07'8 8.2
2015-Mar-17 20:33N 26°04' W 079°58'1111.0
2015-Mar-17 19:33N 26°01' W 079°46'1110.9
2015-Mar-17 18:33N 25°58' W 079°35'  
Track history (hours):
 
Tides and Currents Weather Stations Pressure Air Temp Water Temp Dewpoint Dewpoint Depression Visibility Wind Speed Wind Dir Waves Ship Positions

Cape Express

Last reported at 2015-Mar-27 10:13 UTC. Time now 2015-Mar-28 16:00 UTC.
Position N 25°49' W 079°02'.

Length 29 m; draft 2.2 m.

Type: Cargo ship. MMSI: 370269000.

Date/timePositionNaut miles runAvg speedWind from/ knotsBaromVisibWave heightAir tempDewpointWater temp
2015-Mar-27 10:13N 25°49' W 079°02'7 9.6
2015-Mar-27 09:29N 25°51' W 079°10'11 9.2
2015-Mar-27 08:16N 25°56' W 079°20'7 8.1
2015-Mar-27 07:25N 25°56' W 079°28'8 9.5
2015-Mar-27 06:32N 25°58' W 079°37'9 9.2
2015-Mar-27 05:33N 26°01' W 079°47'9 8.7
2015-Mar-27 04:33N 26°03' W 079°56'9 9.0
2015-Mar-27 03:33N 26°06' W 080°06'3 2.8
2015-Mar-27 02:33N 26°04' W 080°08'0 0.0
2015-Mar-27 01:33N 26°04' W 080°08'0 0.0
2015-Mar-27 00:33N 26°04' W 080°08'0 0.0
2015-Mar-26 23:33N 26°04' W 080°08'0 0.0
2015-Mar-26 22:33N 26°04' W 080°08'0 0.0
2015-Mar-26 21:33N 26°04' W 080°08'0 0.0
2015-Mar-26 20:33N 26°04' W 080°08'0 0.1
2015-Mar-26 19:33N 26°04' W 080°08'0 0.0
2015-Mar-26 18:33N 26°04' W 080°08'0 0.0
2015-Mar-26 17:33N 26°04' W 080°08'0 0.0
2015-Mar-26 16:33N 26°04' W 080°08'0 0.0
2015-Mar-26 15:33N 26°04' W 080°08'0 0.0
2015-Mar-26 14:33N 26°04' W 080°08'0 0.0
2015-Mar-26 13:33N 26°04' W 080°08'4 3.8
2015-Mar-26 12:33N 26°05' W 080°04'8 8.1
2015-Mar-26 11:33N 26°03' W 079°55'8 7.9
2015-Mar-26 10:33N 26°01' W 079°47'9 8.9
2015-Mar-26 09:32N 25°58' W 079°37'4110.4
2015-Mar-26 05:33N 25°47' W 078°53'1110.5
2015-Mar-26 04:31N 25°44' W 078°41'  
2015-Mar-22 03:33N 25°58' W 079°39'8 8.2
2015-Mar-22 02:33N 26°01' W 079°48'9 9.0
2015-Mar-22 01:33N 26°04' W 079°57'9 8.9
2015-Mar-22 00:33N 26°05' W 080°07'2 2.0
2015-Mar-21 23:33N 26°04' W 080°08'0 0.0
2015-Mar-21 22:33N 26°04' W 080°08'0 0.0
2015-Mar-21 21:33N 26°04' W 080°08'0 0.0
2015-Mar-21 20:33N 26°04' W 080°08'0 0.0
2015-Mar-21 19:33N 26°04' W 080°08'0 0.0
2015-Mar-21 18:33N 26°04' W 080°08'0 0.0
2015-Mar-21 17:32N 26°04' W 080°08'0 0.0
2015-Mar-21 16:33N 26°04' W 080°08'0 0.0
2015-Mar-21 15:33N 26°04' W 080°08'0 0.0
2015-Mar-21 14:33N 26°04' W 080°08'4 4.1
2015-Mar-21 13:33N 26°06' W 080°04'1110.8
2015-Mar-21 12:33N 26°03' W 079°52'1111.1
2015-Mar-21 11:33N 25°59' W 079°41'1010.5
2015-Mar-21 10:33N 25°56' W 079°30'1110.5
2015-Mar-21 09:33N 25°54' W 079°18'77 2.5
2015-Mar-20 03:32N 25°51' W 077°53'2610.8
2015-Mar-20 01:08N 25°48' W 078°22'610.4
2015-Mar-20 00:33N 25°47' W 078°29'64 4.0
2015-Mar-19 08:28N 25°53' W 079°39'5 5.5
2015-Mar-19 07:33N 25°56' W 079°44'6 5.8
2015-Mar-19 06:33N 25°58' W 079°50'6 6.4
2015-Mar-19 05:33N 26°01' W 079°56'8 7.9
2015-Mar-19 04:33N 26°05' W 080°04'4 3.6
2015-Mar-19 03:33N 26°04' W 080°08'0 0.0
2015-Mar-19 02:33N 26°04' W 080°08'0 0.0
2015-Mar-19 01:33N 26°04' W 080°08'0 0.0
2015-Mar-19 00:33N 26°04' W 080°08'0 0.0
2015-Mar-18 23:33N 26°04' W 080°08'0 0.0
2015-Mar-18 22:33N 26°04' W 080°08'0 0.0
2015-Mar-18 21:33N 26°04' W 080°08'0 0.0
2015-Mar-18 20:33N 26°04' W 080°08'0 0.1
2015-Mar-18 19:33N 26°04' W 080°08'0 0.0
2015-Mar-18 18:33N 26°04' W 080°08'0 0.0
2015-Mar-18 17:33N 26°04' W 080°08'0 0.0
2015-Mar-18 16:33N 26°04' W 080°08'0 0.0
2015-Mar-18 15:33N 26°04' W 080°08'0 0.0
2015-Mar-18 14:32N 26°04' W 080°08'0 0.0
2015-Mar-18 13:33N 26°04' W 080°08'0 0.0
2015-Mar-18 12:33N 26°04' W 080°08'0 0.5
2015-Mar-18 11:33N 26°04' W 080°07'1 1.4
2015-Mar-18 10:33N 26°05' W 080°07'0 0.4
2015-Mar-18 09:33N 26°06' W 080°07'2 2.0
2015-Mar-18 08:33N 26°04' W 080°08'0 0.0
2015-Mar-18 07:33N 26°04' W 080°08'0 0.0
2015-Mar-18 06:33N 26°04' W 080°08'0 0.0
2015-Mar-18 05:33N 26°04' W 080°08'0 0.0
2015-Mar-18 04:33N 26°04' W 080°08'0 0.0
2015-Mar-18 03:33N 26°04' W 080°08'0 0.0
2015-Mar-18 02:33N 26°04' W 080°08'0 0.0
2015-Mar-18 01:33N 26°04' W 080°08'0 0.0
2015-Mar-18 00:33N 26°04' W 080°08'0 0.0
2015-Mar-17 23:33N 26°04' W 080°08'0 0.0
2015-Mar-17 22:33N 26°04' W 080°08'1 0.5
2015-Mar-17 21:33N 26°04' W 080°07'8 8.2
2015-Mar-17 20:33N 26°04' W 079°58'1111.0
2015-Mar-17 19:33N 26°01' W 079°46'1110.9
2015-Mar-17 18:33N 25°58' W 079°35'  

Dump ship's entire track history